Time;durP1;ratioP1;P1;durP2;ratioP2;P2;SDS_P1;SDS_P2;PMS_P1;PMS_P2;Temp;Humidity;BMP_temperature;BMP_pressure;BME280_temperature;BME280_humidity;BME280_pressure;Samples;Min_cycle;Max_cycle;Signal;HPM_P1;HPM_P2
2023/12/07 00:01:09;;;;;;;14.32;6.07;;;;;;;10.39;47.30;101742.13;5056799;28;20110;-58
2023/12/07 00:03:34;;;;;;;9.30;6.03;;;;;;;10.31;47.13;101731.94;5056608;28;20446;-58
2023/12/07 00:06:01;;;;;;;12.60;6.85;;;;;;;10.30;46.87;101751.63;5058787;28;20043;-58
2023/12/07 00:08:26;;;;;;;9.30;5.57;;;;;;;10.24;46.85;101743.19;5058556;28;20033;-58
2023/12/07 00:10:51;;;;;;;10.52;5.95;;;;;;;10.22;47.14;101737.91;5076730;28;20032;-58
2023/12/07 00:13:17;;;;;;;6.55;4.82;;;;;;;10.19;47.06;101734.63;5058450;28;20037;-58
2023/12/07 00:15:42;;;;;;;6.97;5.22;;;;;;;10.13;47.42;101738.56;5075984;28;20515;-58
2023/12/07 00:18:08;;;;;;;10.43;4.93;;;;;;;10.10;46.59;101740.56;5058152;28;20043;-58
2023/12/07 00:20:33;;;;;;;8.20;5.57;;;;;;;10.04;47.38;101736.47;5058100;28;20111;-60
2023/12/07 00:22:58;;;;;;;12.30;6.00;;;;;;;9.99;46.50;101737.75;5057954;28;20408;-58
2023/12/07 00:25:24;;;;;;;11.20;6.50;;;;;;;9.94;46.92;101738.91;5058131;28;20048;-58
2023/12/07 00:27:49;;;;;;;14.95;6.68;;;;;;;9.92;46.98;101730.13;5075959;28;20036;-58
2023/12/07 00:30:15;;;;;;;15.02;7.47;;;;;;;9.97;46.67;101747.69;5058120;28;20037;-58
2023/12/07 00:32:44;;;;;;;13.77;7.68;;;;;;;9.98;47.64;101744.91;5057894;28;20036;-58
2023/12/07 00:35:10;;;;;;;18.42;8.15;;;;;;;10.01;47.75;101747.38;5057718;28;20052;-58
2023/12/07 00:37:35;;;;;;;14.13;6.65;;;;;;;10.05;46.98;101737.34;5066260;28;20056;-58
2023/12/07 00:40:01;;;;;;;13.60;7.50;;;;;;;10.05;47.74;101738.16;5055741;28;20071;-58
2023/12/07 00:42:27;;;;;;;15.30;8.15;;;;;;;10.10;47.54;101744.09;5038163;28;20151;-58
2023/12/07 00:44:53;;;;;;;18.52;8.15;;;;;;;10.11;47.66;101742.25;5037639;28;20523;-58
2023/12/07 00:47:19;;;;;;;14.55;7.38;;;;;;;10.16;47.36;101740.19;5037850;28;20067;-58
2023/12/07 00:49:44;;;;;;;13.70;7.20;;;;;;;10.14;47.21;101742.94;5075537;28;20396;-58
2023/12/07 00:52:10;;;;;;;13.30;7.22;;;;;;;10.12;47.92;101738.63;5075272;28;20029;-58
2023/12/07 00:54:35;;;;;;;17.17;8.18;;;;;;;10.15;47.83;101743.81;5053959;28;20029;-58
2023/12/07 00:57:00;;;;;;;21.15;8.15;;;;;;;10.13;47.19;101751.09;5057316;28;20040;-58
2023/12/07 00:59:26;;;;;;;14.18;7.47;;;;;;;10.15;47.40;101743.81;5091066;28;20502;-60
2023/12/07 01:01:51;;;;;;;19.58;8.38;;;;;;;10.17;47.44;101747.22;5030542;28;20049;-60
2023/12/07 01:04:17;;;;;;;17.02;9.13;;;;;;;10.16;47.92;101742.84;5075196;28;20025;-60
2023/12/07 01:06:43;;;;;;;14.10;8.48;;;;;;;10.19;47.81;101753.34;5091031;28;20039;-59
2023/12/07 01:09:13;;;;;;;22.15;10.10;;;;;;;10.18;48.04;101749.81;5057149;28;20115;-58
2023/12/07 01:11:40;;;;;;;21.63;9.45;;;;;;;10.21;47.44;101759.44;5041083;28;20497;-59
2023/12/07 01:14:05;;;;;;;20.70;9.65;;;;;;;10.23;48.40;101758.38;5073640;28;20039;-58
2023/12/07 01:16:31;;;;;;;21.75;10.05;;;;;;;10.27;48.00;101767.06;5090808;28;20025;-57
2023/12/07 01:18:57;;;;;;;21.88;10.57;;;;;;;10.31;47.71;101773.91;5057000;28;20029;-58
2023/12/07 01:21:23;;;;;;;24.65;10.30;;;;;;;10.35;48.50;101778.13;5041069;28;20403;-58
2023/12/07 01:23:48;;;;;;;29.80;11.02;;;;;;;10.34;48.10;101777.25;5039966;28;20020;-58
2023/12/07 01:26:14;;;;;;;37.65;11.90;;;;;;;10.31;48.21;101773.91;5074972;28;20441;-58
2023/12/07 01:28:39;;;;;;;26.48;8.98;;;;;;;10.29;48.06;101775.84;5056984;28;20062;-57
2023/12/07 01:31:04;;;;;;;37.80;8.63;;;;;;;10.21;47.84;101771.03;5090395;28;20103;-57
2023/12/07 01:33:30;;;;;;;29.33;9.90;;;;;;;10.18;48.54;101775.72;5056590;28;20021;-58
2023/12/07 01:35:55;;;;;;;44.05;9.75;;;;;;;10.13;48.33;101775.19;5090161;28;20471;-57
2023/12/07 01:38:20;;;;;;;27.58;8.20;;;;;;;10.08;48.30;101778.13;5090363;28;20051;-57
2023/12/07 01:40:46;;;;;;;24.90;8.82;;;;;;;10.05;48.04;101781.00;5074582;28;20032;-57
2023/12/07 01:43:11;;;;;;;25.50;10.07;;;;;;;10.04;48.46;101776.63;5056476;28;20020;-58
2023/12/07 01:45:36;;;;;;;40.70;8.48;;;;;;;10.02;48.54;101783.91;5056894;28;20052;-58
2023/12/07 01:48:02;;;;;;;31.92;10.82;;;;;;;10.03;48.49;101792.75;5056585;28;20483;-57
2023/12/07 01:50:28;;;;;;;46.08;9.95;;;;;;;10.02;48.33;101781.22;5040395;28;20035;-60
2023/12/07 01:52:59;;;;;;;25.73;9.20;;;;;;;10.01;48.35;101778.63;5056856;28;20056;-58
2023/12/07 01:55:26;;;;;;;21.85;10.35;;;;;;;9.98;48.31;101773.47;5040087;28;20089;-57
2023/12/07 01:57:51;;;;;;;43.05;9.65;;;;;;;9.92;48.65;101762.22;5056796;28;20063;-58
2023/12/07 02:00:18;;;;;;;23.50;8.32;;;;;;;9.86;48.17;101773.34;5074536;28;20056;-57
2023/12/07 02:02:45;;;;;;;34.33;8.43;;;;;;;9.80;48.31;101776.41;5074203;28;20040;-58
2023/12/07 02:05:12;;;;;;;20.50;8.38;;;;;;;9.78;48.82;101783.69;5056482;28;20547;-58
2023/12/07 02:07:40;;;;;;;29.90;9.60;;;;;;;9.79;48.40;101788.09;5056059;28;20035;-58
2023/12/07 02:10:06;;;;;;;42.60;9.07;;;;;;;9.78;48.82;101786.38;5039487;28;20513;-58
2023/12/07 02:12:31;;;;;;;20.50;8.88;;;;;;;9.80;48.76;101788.94;5072526;28;20040;-58
2023/12/07 02:14:57;;;;;;;21.33;8.93;;;;;;;9.80;48.59;101783.56;5072159;28;20040;-58
2023/12/07 02:17:34;;;;;;;30.17;10.13;;;;;;;9.76;48.78;101780.28;5056196;28;20488;-58
2023/12/07 02:20:10;;;;;;;25.38;9.70;;;;;;;9.77;49.08;101781.13;5056294;28;20039;-58
2023/12/07 02:23:07;;;;;;;28.20;9.73;;;;;;;9.79;49.61;101790.78;5089242;28;20446;-58
2023/12/07 02:25:41;;;;;;;26.83;8.38;;;;;;;9.81;48.99;101771.94;5031105;28;20460;-58
2023/12/07 02:28:06;;;;;;;31.83;11.02;;;;;;;9.86;48.76;101786.72;5073959;28;20055;-60
2023/12/07 02:30:31;;;;;;;28.70;9.63;;;;;;;9.92;48.97;101782.78;5058017;28;20036;-58
2023/12/07 02:32:57;;;;;;;27.33;9.88;;;;;;;9.98;49.14;101789.53;5057948;28;20128;-59
2023/12/07 02:35:24;;;;;;;24.15;9.60;;;;;;;10.02;49.09;101780.34;5091850;28;20407;-58
2023/12/07 02:37:50;;;;;;;22.05;9.90;;;;;;;10.04;48.98;101799.84;5076066;28;20029;-58
2023/12/07 02:40:26;;;;;;;29.25;9.70;;;;;;;10.09;49.17;101808.41;5041153;28;20036;-58
2023/12/07 02:42:57;;;;;;;21.55;10.57;;;;;;;10.12;48.99;101808.22;5091130;28;20092;-58
2023/12/07 02:45:23;;;;;;;31.02;9.90;;;;;;;10.17;49.44;101800.78;5055777;28;20036;-58
2023/12/07 02:47:49;;;;;;;40.42;10.55;;;;;;;10.20;49.27;101795.22;5088935;28;20191;-58
2023/12/07 02:50:15;;;;;;;35.78;10.25;;;;;;;10.23;49.65;101792.31;5038810;28;20123;-58
2023/12/07 02:52:40;;;;;;;30.42;11.35;;;;;;;10.24;48.78;101775.31;5038808;28;20124;-58
2023/12/07 02:55:07;;;;;;;27.65;10.02;;;;;;;10.35;48.76;101788.84;5055489;28;20036;-59
2023/12/07 02:57:33;;;;;;;26.90;10.73;;;;;;;10.40;49.34;101789.38;5089020;28;20037;-58
2023/12/07 02:59:59;;;;;;;29.88;10.40;;;;;;;10.42;48.75;101766.00;5055682;28;20032;-58
2023/12/07 03:02:25;;;;;;;28.80;10.70;;;;;;;10.39;49.08;101758.19;5072919;28;20036;-59
2023/12/07 03:04:51;;;;;;;28.40;10.68;;;;;;;10.40;49.41;101760.78;5055315;28;20043;-58
2023/12/07 03:07:16;;;;;;;32.25;11.70;;;;;;;10.38;49.20;101767.19;5073114;28;20037;-58
2023/12/07 03:09:41;;;;;;;29.15;11.10;;;;;;;10.40;49.37;101757.22;5072995;28;20039;-58
2023/12/07 03:12:08;;;;;;;28.15;10.88;;;;;;;10.39;49.18;101758.19;5072594;28;20036;-58
2023/12/07 03:14:34;;;;;;;27.77;11.20;;;;;;;10.39;49.05;101758.19;5072808;28;20051;-59
2023/12/07 03:16:59;;;;;;;31.08;10.45;;;;;;;10.40;48.98;101762.59;5073345;28;20428;-58
2023/12/07 03:19:25;;;;;;;27.58;10.27;;;;;;;10.41;49.05;101756.28;5055215;28;20047;-59
2023/12/07 03:21:50;;;;;;;26.15;9.52;;;;;;;10.45;49.49;101760.44;5054808;28;20129;-58
2023/12/07 03:24:16;;;;;;;28.58;12.15;;;;;;;10.44;48.96;101756.91;5054909;28;20028;-58
2023/12/07 03:26:41;;;;;;;27.73;10.43;;;;;;;10.46;49.38;101763.03;5071945;28;20036;-58
2023/12/07 03:29:08;;;;;;;29.10;10.18;;;;;;;10.46;49.22;101756.81;5054937;28;20056;-58
2023/12/07 03:31:33;;;;;;;27.70;10.43;;;;;;;10.48;49.83;101757.56;5055051;28;20046;-59
2023/12/07 03:34:00;;;;;;;26.15;10.30;;;;;;;10.52;49.60;101761.75;5054476;28;20475;-58
2023/12/07 03:36:26;;;;;;;29.35;12.02;;;;;;;10.56;49.41;101768.59;5072500;28;20036;-58
2023/12/07 03:38:52;;;;;;;28.30;11.43;;;;;;;10.55;48.92;101758.88;5038823;28;20566;-58
2023/12/07 03:41:17;;;;;;;27.80;9.65;;;;;;;10.56;49.17;101757.88;5055128;28;20037;-58
2023/12/07 03:43:42;;;;;;;28.27;10.82;;;;;;;10.58;49.16;101766.66;5056851;28;20039;-59
2023/12/07 03:46:08;;;;;;;29.10;10.57;;;;;;;10.56;49.51;101757.88;5056165;28;20496;-59
2023/12/07 03:48:34;;;;;;;25.23;9.27;;;;;;;10.55;49.15;101766.91;5055593;28;20563;-58
2023/12/07 03:51:00;;;;;;;22.63;9.00;;;;;;;10.53;48.98;101760.78;5054931;28;20412;-58
2023/12/07 03:53:25;;;;;;;26.27;10.68;;;;;;;10.56;49.18;101759.69;5072435;28;20127;-58
2023/12/07 03:55:51;;;;;;;25.65;10.02;;;;;;;10.53;48.98;101766.13;5071910;28;20079;-63
2023/12/07 03:58:17;;;;;;;26.23;9.15;;;;;;;10.52;48.94;101767.94;5072313;28;20032;-59
2023/12/07 04:00:42;;;;;;;27.65;9.52;;;;;;;10.53;49.53;101767.00;5054339;28;20031;-58
2023/12/07 04:03:08;;;;;;;25.20;9.77;;;;;;;10.57;49.50;101766.78;5054489;28;20055;-59
2023/12/07 04:05:33;;;;;;;26.55;10.07;;;;;;;10.52;49.83;101770.63;5021441;28;20178;-58
2023/12/07 04:07:59;;;;;;;21.30;9.48;;;;;;;10.52;49.54;101767.94;5054414;28;20016;-59
2023/12/07 04:10:25;;;;;;;27.38;10.23;;;;;;;10.55;49.57;101774.94;5072352;28;20073;-58
2023/12/07 04:12:52;;;;;;;29.90;11.60;;;;;;;10.52;49.93;101780.50;5054453;28;20031;-58
2023/12/07 04:15:18;;;;;;;27.98;10.43;;;;;;;10.55;49.51;101785.66;5038234;28;20111;-58
2023/12/07 04:17:43;;;;;;;24.58;10.52;;;;;;;10.55;49.10;101769.59;5054468;28;20051;-59
2023/12/07 04:20:09;;;;;;;23.20;10.35;;;;;;;10.60;49.28;101778.16;5054314;28;20078;-58
2023/12/07 04:22:35;;;;;;;24.13;10.00;;;;;;;10.62;49.67;101781.56;5053787;28;20028;-60
2023/12/07 04:25:00;;;;;;;23.92;10.25;;;;;;;10.62;49.00;101781.56;5072452;28;20028;-58
2023/12/07 04:27:25;;;;;;;20.13;9.10;;;;;;;10.65;48.76;101785.84;5037861;28;20111;-58
2023/12/07 04:29:51;;;;;;;25.65;9.48;;;;;;;10.66;49.17;101783.09;5054513;28;20537;-59
2023/12/07 04:32:16;;;;;;;23.95;10.27;;;;;;;10.68;49.80;101791.88;5072166;28;20029;-58
2023/12/07 04:34:41;;;;;;;23.30;9.40;;;;;;;10.69;49.70;101790.88;5071940;28;20032;-58
2023/12/07 04:37:07;;;;;;;30.85;10.35;;;;;;;10.68;49.65;101791.88;5055084;28;20029;-58
2023/12/07 04:39:32;;;;;;;26.55;10.05;;;;;;;10.67;49.83;101800.88;5076040;28;20055;-58
2023/12/07 04:41:57;;;;;;;31.55;10.32;;;;;;;10.72;49.28;101813.97;5041095;28;20028;-58
2023/12/07 04:44:25;;;;;;;22.80;9.32;;;;;;;10.74;49.21;101818.25;5057778;28;20021;-60
2023/12/07 04:46:50;;;;;;;24.08;8.40;;;;;;;10.76;49.81;101813.63;5057615;28;20039;-58
2023/12/07 04:49:16;;;;;;;22.42;10.20;;;;;;;10.79;49.58;101809.88;5057431;28;20049;-59
2023/12/07 04:51:46;;;;;;;28.55;9.90;;;;;;;10.80;49.97;101811.59;5075481;28;20079;-58
2023/12/07 04:54:14;;;;;;;21.48;8.77;;;;;;;10.80;49.56;101807.13;5075617;28;20052;-58
2023/12/07 04:56:40;;;;;;;26.25;10.07;;;;;;;10.85;49.99;101813.00;5075665;28;20040;-58
2023/12/07 04:59:06;;;;;;;20.23;8.20;;;;;;;10.86;49.28;101803.97;5057868;28;20046;-60
2023/12/07 05:01:31;;;;;;;19.20;7.72;;;;;;;10.85;49.10;101799.59;5057881;28;20489;-58
2023/12/07 05:03:57;;;;;;;21.13;7.80;;;;;;;10.90;49.72;101802.81;5057600;28;20039;-58
2023/12/07 05:06:22;;;;;;;17.13;8.15;;;;;;;10.91;49.31;101793.81;5057210;28;20043;-59
2023/12/07 05:08:47;;;;;;;18.70;8.57;;;;;;;10.92;49.18;101790.16;5075032;28;20044;-58
2023/12/07 05:11:13;;;;;;;18.20;7.97;;;;;;;10.91;48.85;101796.50;5040566;28;20033;-59
2023/12/07 05:13:38;;;;;;;23.08;8.98;;;;;;;10.94;49.02;101793.56;5075223;28;20045;-59
2023/12/07 05:16:04;;;;;;;19.58;7.90;;;;;;;10.94;48.98;101798.94;5073710;28;20032;-58
2023/12/07 05:18:29;;;;;;;23.63;8.07;;;;;;;10.90;49.88;101781.38;5074252;28;20064;-58
2023/12/07 05:20:55;;;;;;;18.17;8.18;;;;;;;10.92;49.74;101792.84;5040410;28;20036;-59
2023/12/07 05:23:20;;;;;;;20.88;8.68;;;;;;;10.94;49.51;101793.56;5057058;28;20098;-59
2023/12/07 05:25:45;;;;;;;18.20;8.10;;;;;;;10.92;49.47;101792.84;5075466;28;20035;-58
2023/12/07 05:28:11;;;;;;;19.23;8.55;;;;;;;10.92;49.63;101784.78;5057233;28;20131;-59
2023/12/07 05:30:36;;;;;;;19.25;8.82;;;;;;;10.90;49.03;101778.69;5075327;28;20028;-59
2023/12/07 05:33:03;;;;;;;18.30;8.98;;;;;;;10.88;48.90;101774.41;5074235;28;20454;-59
2023/12/07 05:35:28;;;;;;;19.42;6.97;;;;;;;10.87;48.95;101770.88;5056926;28;20040;-59
2023/12/07 05:37:54;;;;;;;17.95;7.97;;;;;;;10.89;49.84;101774.28;5074608;28;20102;-59
2023/12/07 05:40:19;;;;;;;20.33;7.25;;;;;;;10.86;49.61;101768.31;5074618;28;20032;-58
2023/12/07 05:42:49;;;;;;;18.85;9.00;;;;;;;10.85;49.71;101771.94;5040094;28;20052;-59
2023/12/07 05:45:14;;;;;;;20.55;9.93;;;;;;;10.84;49.50;101773.75;5056791;28;20067;-58
2023/12/07 05:47:40;;;;;;;20.70;9.25;;;;;;;10.86;49.81;101769.13;5056138;28;20508;-58
2023/12/07 05:50:06;;;;;;;17.45;8.85;;;;;;;10.85;49.28;101764.75;5056419;28;20040;-59
2023/12/07 05:52:32;;;;;;;32.58;9.68;;;;;;;10.86;49.60;101761.09;5056289;28;20033;-59
2023/12/07 05:54:57;;;;;;;18.77;9.00;;;;;;;10.89;49.19;101763.56;5056065;28;20135;-58
2023/12/07 05:57:22;;;;;;;23.45;9.20;;;;;;;10.88;49.60;101761.88;5056511;28;20071;-59
2023/12/07 05:59:48;;;;;;;24.13;9.48;;;;;;;10.88;48.89;101761.00;5056390;28;20044;-58
2023/12/07 06:02:13;;;;;;;24.85;8.60;;;;;;;10.84;49.12;101755.00;5056355;28;20039;-59
2023/12/07 06:04:38;;;;;;;21.77;9.10;;;;;;;10.79;49.47;101746.44;5073791;28;20097;-58
2023/12/07 06:07:04;;;;;;;21.23;9.77;;;;;;;10.80;49.46;101758.00;5074303;28;20076;-58
2023/12/07 06:09:29;;;;;;;21.52;9.30;;;;;;;10.80;49.82;101753.50;5074295;28;20086;-58
2023/12/07 06:11:55;;;;;;;21.00;8.60;;;;;;;10.75;49.28;101752.94;5056410;28;20396;-59
2023/12/07 06:14:22;;;;;;;19.52;9.40;;;;;;;10.72;49.12;101753.16;5056235;28;20115;-59
2023/12/07 06:16:48;;;;;;;20.20;9.13;;;;;;;10.72;49.43;101745.13;5056066;28;20061;-59
2023/12/07 06:19:14;;;;;;;22.42;8.57;;;;;;;10.71;49.60;101748.78;5074020;28;20064;-59
2023/12/07 06:21:39;;;;;;;17.77;7.28;;;;;;;10.69;49.18;101750.69;5074055;28;20488;-58
2023/12/07 06:24:04;;;;;;;17.13;7.93;;;;;;;10.70;49.56;101744.38;5089520;28;20087;-58
2023/12/07 06:26:30;;;;;;;20.67;8.68;;;;;;;10.73;49.68;101751.34;5073721;28;20082;-58
2023/12/07 06:28:55;;;;;;;17.75;7.82;;;;;;;10.73;49.29;101741.50;5055832;28;20090;-58
2023/12/07 06:31:21;;;;;;;16.95;8.35;;;;;;;10.72;49.87;101745.13;5073356;28;20043;-59
2023/12/07 06:33:47;;;;;;;21.13;8.93;;;;;;;10.73;49.55;101741.50;5055173;28;20036;-59
2023/12/07 06:36:19;;;;;;;15.50;8.27;;;;;;;10.71;49.78;101738.06;5073792;28;20033;-58
2023/12/07 06:38:45;;;;;;;18.17;8.70;;;;;;;10.71;49.13;101742.56;5073552;28;20047;-60
2023/12/07 06:41:10;;;;;;;17.15;8.38;;;;;;;10.67;49.06;101744.59;5055881;28;20032;-61
2023/12/07 06:43:35;;;;;;;16.25;7.20;;;;;;;10.68;49.96;101735.59;5073638;28;20516;-59
2023/12/07 06:46:01;;;;;;;15.98;7.32;;;;;;;10.72;49.56;101736.25;5039058;28;20090;-59
2023/12/07 06:48:26;;;;;;;17.40;6.88;;;;;;;10.70;50.04;101732.81;5073849;28;20041;-60
2023/12/07 06:50:51;;;;;;;14.52;6.97;;;;;;;10.74;49.29;101728.97;5057143;28;20036;-59
2023/12/07 06:53:18;;;;;;;14.57;7.35;;;;;;;10.73;48.89;101730.78;5075199;28;20098;-60
2023/12/07 06:55:43;;;;;;;17.10;7.82;;;;;;;10.72;49.68;101720.19;5057586;28;20036;-60
2023/12/07 06:58:09;;;;;;;13.90;7.05;;;;;;;10.71;48.88;101727.34;5057925;28;20028;-59
2023/12/07 07:00:36;;;;;;;16.83;7.32;;;;;;;10.69;49.10;101723.06;5090802;28;20511;-60
2023/12/07 07:03:01;;;;;;;18.02;7.65;;;;;;;10.69;49.23;101723.91;5075265;28;20096;-59
2023/12/07 07:05:27;;;;;;;14.30;7.10;;;;;;;10.70;49.97;101731.00;5039801;28;20091;-59
2023/12/07 07:07:52;;;;;;;16.73;7.57;;;;;;;10.70;48.97;101732.81;5055133;28;20040;-60
2023/12/07 07:10:18;;;;;;;20.02;8.35;;;;;;;10.71;48.90;101732.72;5055118;28;20040;-60
2023/12/07 07:12:43;;;;;;;14.13;7.68;;;;;;;10.70;49.72;101728.31;5055233;28;20407;-60
2023/12/07 07:15:09;;;;;;;17.75;7.75;;;;;;;10.71;48.73;101727.34;5071535;28;20044;-59
2023/12/07 07:17:34;;;;;;;19.05;7.07;;;;;;;10.75;49.37;101728.84;5055312;28;20032;-60
2023/12/07 07:20:00;;;;;;;13.18;6.70;;;;;;;10.73;49.06;101730.78;5038455;28;20085;-59
2023/12/07 07:22:25;;;;;;;15.85;7.25;;;;;;;10.75;48.93;101731.50;5038364;28;20029;-60
2023/12/07 07:24:52;;;;;;;11.80;5.57;;;;;;;10.75;49.51;101736.88;5072709;28;20104;-60
2023/12/07 07:27:17;;;;;;;12.90;6.60;;;;;;;10.76;49.08;101741.28;5072659;28;20499;-60
2023/12/07 07:29:43;;;;;;;12.48;5.53;;;;;;;10.72;49.25;101734.41;5054813;28;20090;-59
2023/12/07 07:32:08;;;;;;;15.02;7.20;;;;;;;10.73;49.29;101732.59;5055014;28;20492;-60
2023/12/07 07:34:34;;;;;;;12.27;5.80;;;;;;;10.75;49.12;101744.09;5072575;28;20124;-60
2023/12/07 07:36:59;;;;;;;12.10;5.78;;;;;;;10.73;49.33;101754.91;5037977;28;20029;-60
2023/12/07 07:39:24;;;;;;;9.30;5.05;;;;;;;10.71;48.38;101743.44;5072815;28;20123;-60
2023/12/07 07:41:50;;;;;;;12.52;5.95;;;;;;;10.68;48.93;101746.31;5055034;28;20052;-60
2023/12/07 07:44:15;;;;;;;13.35;5.88;;;;;;;10.69;48.28;101739.97;5072815;28;20037;-59
2023/12/07 07:46:41;;;;;;;14.07;6.07;;;;;;;10.68;49.01;101748.13;5038191;28;20548;-60
2023/12/07 07:49:06;;;;;;;13.35;6.18;;;;;;;10.65;48.01;101746.53;5072534;28;20040;-59
2023/12/07 07:51:33;;;;;;;16.70;6.13;;;;;;;10.63;48.40;101740.44;5054778;28;20116;-59
2023/12/07 07:54:01;;;;;;;12.35;5.65;;;;;;;10.59;47.68;101738.91;5072486;28;20120;-60
2023/12/07 07:56:26;;;;;;;11.88;5.65;;;;;;;10.57;48.27;101740.84;5054830;28;20377;-60
2023/12/07 07:58:52;;;;;;;13.40;5.70;;;;;;;10.54;48.45;101735.72;5054957;28;20063;-60
2023/12/07 08:01:17;;;;;;;11.13;6.03;;;;;;;10.49;48.47;101738.72;5054565;28;20119;-60
2023/12/07 08:03:42;;;;;;;16.15;5.82;;;;;;;10.46;48.95;101740.75;5072529;28;20083;-60
2023/12/07 08:06:08;;;;;;;11.57;5.65;;;;;;;10.41;48.29;101729.50;5054512;28;20491;-60
2023/12/07 08:08:34;;;;;;;13.38;6.45;;;;;;;10.38;48.37;101733.25;5088491;28;20048;-60
2023/12/07 08:11:01;;;;;;;14.57;6.68;;;;;;;10.41;48.51;101749.06;5055351;28;20036;-60
2023/12/07 08:13:27;;;;;;;11.35;6.22;;;;;;;10.41;48.77;101738.38;5076584;28;20074;-60
2023/12/07 08:15:53;;;;;;;12.93;6.68;;;;;;;10.41;48.25;101729.50;5059292;28;20063;-60
2023/12/07 08:18:19;;;;;;;9.90;6.05;;;;;;;10.39;48.72;101731.41;5076306;28;20029;-60
2023/12/07 08:20:44;;;;;;;11.40;6.13;;;;;;;10.36;47.92;101726.25;5058385;28;20381;-59
2023/12/07 08:23:10;;;;;;;10.40;5.47;;;;;;;10.37;48.84;101734.19;5091644;28;20037;-60
2023/12/07 08:25:38;;;;;;;15.23;7.30;;;;;;;10.36;47.95;101720.91;5075986;28;20036;-60
2023/12/07 08:28:03;;;;;;;10.45;5.50;;;;;;;10.33;48.65;101721.97;5058221;28;20093;-59
2023/12/07 08:30:29;;;;;;;13.40;7.28;;;;;;;10.32;48.16;101724.78;5076162;28;20119;-59
2023/12/07 08:32:54;;;;;;;15.07;6.50;;;;;;;10.30;48.67;101721.34;5041381;28;20458;-59
2023/12/07 08:35:20;;;;;;;11.07;5.90;;;;;;;10.31;48.63;101723.91;5076063;28;20035;-60
2023/12/07 08:37:45;;;;;;;12.70;6.50;;;;;;;10.32;47.99;101722.97;5041440;28;20028;-59
2023/12/07 08:40:11;;;;;;;18.27;6.43;;;;;;;10.34;48.52;101728.19;5058101;28;20044;-59
2023/12/07 08:42:37;;;;;;;14.13;7.25;;;;;;;10.37;49.06;101733.34;5041219;28;20116;-59
2023/12/07 08:45:03;;;;;;;17.33;7.28;;;;;;;10.33;48.51;101721.13;5057529;28;20057;-60
2023/12/07 08:47:30;;;;;;;11.93;6.07;;;;;;;10.41;48.48;101732.19;5075546;28;20071;-60
2023/12/07 08:49:55;;;;;;;14.27;6.85;;;;;;;10.44;48.47;101730.13;5075538;28;20531;-60
2023/12/07 08:52:20;;;;;;;14.10;7.78;;;;;;;10.52;48.88;101748.38;5090952;28;20143;-60
2023/12/07 08:54:46;;;;;;;13.45;6.63;;;;;;;10.56;47.85;101736.44;5057469;28;20381;-60
2023/12/07 08:57:12;;;;;;;21.30;7.05;;;;;;;10.64;48.15;101736.78;5057513;28;20539;-60
2023/12/07 08:59:37;;;;;;;16.40;6.68;;;;;;;10.66;48.37;101734.88;5057951;28;20082;-60
2023/12/07 09:02:03;;;;;;;17.42;7.60;;;;;;;10.73;48.12;101743.31;5057694;28;20040;-60
2023/12/07 09:04:28;;;;;;;17.13;6.90;;;;;;;10.76;48.02;101733.25;5075459;28;20467;-60
2023/12/07 09:06:54;;;;;;;17.27;7.20;;;;;;;10.81;47.82;101736.44;5040876;28;20452;-60
2023/12/07 09:09:20;;;;;;;17.85;7.65;;;;;;;10.84;47.99;101733.56;5075292;28;20040;-60
2023/12/07 09:11:45;;;;;;;16.67;7.05;;;;;;;10.85;48.76;101729.91;5057293;28;20055;-60
2023/12/07 09:14:11;;;;;;;15.07;7.90;;;;;;;10.87;47.75;101727.97;5040541;28;20119;-60
2023/12/07 09:16:45;;;;;;;11.32;6.28;;;;;;;10.87;48.26;101727.97;5057214;28;20044;-60
2023/12/07 09:19:12;;;;;;;15.27;7.50;;;;;;;10.94;48.76;101742.63;5090516;28;20098;-60
2023/12/07 09:21:38;;;;;;;25.23;7.15;;;;;;;10.99;48.11;101747.69;5040371;28;20032;-60
2023/12/07 09:24:05;;;;;;;18.42;7.93;;;;;;;11.04;48.42;101756.25;5055446;28;20032;-60
2023/12/07 09:26:31;;;;;;;18.55;7.05;;;;;;;11.11;47.90;101750.34;5057249;28;20036;-60
2023/12/07 09:28:56;;;;;;;16.05;7.28;;;;;;;11.19;48.35;101743.59;5040488;28;20094;-61
2023/12/07 09:31:21;;;;;;;16.48;7.35;;;;;;;11.30;47.50;101735.63;5040550;28;20033;-60
2023/12/07 09:33:47;;;;;;;13.50;7.00;;;;;;;11.54;48.19;101737.34;5056870;28;20120;-60
2023/12/07 09:36:18;;;;;;;18.67;7.63;;;;;;;11.80;47.12;101729.22;5057239;28;20032;-60
2023/12/07 09:38:44;;;;;;;13.63;7.03;;;;;;;12.09;47.32;101718.00;5074956;28;20041;-60
2023/12/07 09:41:09;;;;;;;13.07;6.47;;;;;;;12.44;46.80;101709.06;5056965;28;20634;-60
2023/12/07 09:43:35;;;;;;;14.82;6.43;;;;;;;12.77;45.92;101701.88;5057024;28;20031;-60
2023/12/07 09:46:00;;;;;;;13.85;6.18;;;;;;;13.07;45.70;101686.94;5057139;28;20094;-60
2023/12/07 09:48:26;;;;;;;11.60;6.00;;;;;;;13.37;46.44;101682.63;5056543;28;20079;-60
2023/12/07 09:50:52;;;;;;;11.55;5.97;;;;;;;13.74;45.88;101682.28;5056652;28;20112;-60
2023/12/07 09:53:17;;;;;;;16.00;7.18;;;;;;;14.08;45.52;101673.06;5074209;28;20032;-61
2023/12/07 09:55:43;;;;;;;16.17;7.65;;;;;;;14.43;45.25;101664.66;5074368;28;20455;-60
2023/12/07 09:58:08;;;;;;;15.73;6.45;;;;;;;14.69;45.38;101663.22;5056415;28;20047;-60
2023/12/07 10:00:35;;;;;;;9.02;6.28;;;;;;;15.00;45.77;101661.34;5039697;28;20032;-60
2023/12/07 10:03:00;;;;;;;15.38;7.43;;;;;;;15.25;44.32;101652.75;5056530;28;20029;-60
2023/12/07 10:05:25;;;;;;;13.90;6.35;;;;;;;15.54;44.50;101653.69;5039531;28;20526;-61
2023/12/07 10:07:51;;;;;;;12.15;5.93;;;;;;;15.70;45.45;101643.19;5074067;28;20028;-60
2023/12/07 10:10:18;;;;;;;11.10;5.90;;;;;;;15.94;43.62;101639.19;5039724;28;20039;-60
2023/12/07 10:12:48;;;;;;;11.95;5.68;;;;;;;16.03;44.63;101641.00;5056055;28;20036;-61
2023/12/07 10:15:18;;;;;;;11.95;5.50;;;;;;;16.19;43.98;101636.72;5089473;28;20044;-60
2023/12/07 10:17:47;;;;;;;11.05;5.85;;;;;;;16.31;44.21;101632.84;5089563;28;20553;-60
2023/12/07 10:20:16;;;;;;;8.65;4.72;;;;;;;16.40;44.21;101625.72;5088988;28;20528;-60
2023/12/07 10:22:42;;;;;;;10.82;5.40;;;;;;;16.47;43.61;101629.50;5073925;28;20040;-60
2023/12/07 10:25:07;;;;;;;10.52;5.80;;;;;;;16.52;43.73;101629.94;5055869;28;20047;-60
2023/12/07 10:27:33;;;;;;;9.60;5.20;;;;;;;16.45;44.33;101606.31;5055881;28;20025;-61
2023/12/07 10:29:59;;;;;;;9.82;5.47;;;;;;;16.52;44.03;101611.00;5072231;28;20024;-60
2023/12/07 10:32:25;;;;;;;11.85;5.75;;;;;;;16.66;43.43;101604.28;5073878;28;20047;-60
2023/12/07 10:34:52;;;;;;;10.50;5.13;;;;;;;16.73;42.81;101599.97;5088889;28;20051;-60
2023/12/07 10:37:17;;;;;;;9.30;4.85;;;;;;;16.81;42.38;101592.81;5055644;28;20569;-58
2023/12/07 10:39:42;;;;;;;9.32;4.90;;;;;;;16.87;42.01;101585.94;5089126;28;20060;-59
2023/12/07 10:42:13;;;;;;;12.32;6.15;;;;;;;16.94;42.75;101588.91;5038551;28;20040;-59
2023/12/07 10:44:41;;;;;;;8.93;5.38;;;;;;;17.02;41.60;101591.69;5088515;28;20043;-59
2023/12/07 10:47:10;;;;;;;9.70;5.38;;;;;;;17.12;41.94;101585.22;5073407;28;20028;-58
2023/12/07 10:49:36;;;;;;;12.90;5.30;;;;;;;17.22;42.18;101580.59;5055627;28;20419;-59
2023/12/07 10:52:05;;;;;;;10.88;6.03;;;;;;;17.34;41.78;101578.50;5071979;28;20033;-59
2023/12/07 10:54:39;;;;;;;8.98;5.47;;;;;;;17.51;41.57;101577.63;5088318;28;20078;-58
2023/12/07 10:57:06;;;;;;;14.13;5.65;;;;;;;17.62;41.80;101572.00;5088963;28;20086;-59
2023/12/07 10:59:32;;;;;;;12.82;5.68;;;;;;;17.66;41.83;101568.00;5071674;28;20036;-60
2023/12/07 11:01:57;;;;;;;9.27;4.82;;;;;;;17.77;41.62;101575.03;5055439;28;20032;-61
2023/12/07 11:04:23;;;;;;;12.02;5.05;;;;;;;17.80;41.44;101569.28;5073258;28;20036;-58
2023/12/07 11:06:50;;;;;;;9.50;4.72;;;;;;;17.77;41.70;101565.03;5055950;28;20120;-58
2023/12/07 11:09:23;;;;;;;10.55;4.90;;;;;;;17.76;41.13;101557.03;5089955;28;20032;-58
2023/12/07 11:11:48;;;;;;;10.07;4.63;;;;;;;17.85;41.50;101556.97;5056440;28;20039;-59